Braeside, Canada
Current Conditions -  °F | °C
As of 1:00 PM on Monday 26 Jan 2015 (Local Time) from CYOW Reporting Station
Broken Clouds Broken Clouds  
Wind Chill: -12°   Ceiling: 24000
Heat Index:   Visibility: 15mi
Dew Point: -6°   Wind: 14mph
Humidity: 61%   Direction: 50°NE
Pressure: 30.15"   Gusts: NA
Location:  45.47°N, 76.4°W
Report Text: CYOW 261800Z 05012KT 15SM FEW180 SCT200 BKN240 M15/M21 A3015 RMK AC1CI2CS3 SLP222
Loading
Personal Weather Stations






























Interactive Weather Map New forecast layout! Learn more

10-Day Weather Forecast

Advertisements
Track Severe Weather on mobile